Terminal Aerodrome Forecast
Issued by NWS

Home | Current Version | Previous Version | Text Only | Print | Product List | Glossary On
Versions: 1 2 3 4 5 6 7 8 9 10 11 12 13 14
000
FTAK31 PAFA 251131
TAFAGA
TAF
PAGA 251131Z 2512/2612 13003KT P6SM VCSH FEW029 BKN050 OVC120
     FM251700 22007KT 5SM -SHRA BR SCT015 BKN025 OVC050
     FM252200 19007KT 4SM -SHRA BR SCT007 OVC015
     FM260300 24010KT 6SM -SHRA BR SCT015 OVC025
     FM260800 23006KT 6SM BR SCT004 SCT015 BKN025=

USA.gov is the U.S. government's official web portal to all federal, state and local government web resources and services.